createdAt,value
2023-05-19T00:02:06.058Z,8.37
2023-05-19T00:04:33.900Z,8.42
2023-05-19T00:07:01.638Z,8.32
2023-05-19T00:09:28.994Z,8.32
2023-05-19T00:11:57.035Z,8.28
2023-05-19T00:14:24.155Z,8.26
2023-05-19T00:16:51.322Z,8.19
2023-05-19T00:19:19.076Z,8.27
2023-05-19T00:21:46.081Z,8.22
2023-05-19T00:24:13.490Z,8.23
2023-05-19T00:26:40.436Z,8.11
2023-05-19T00:29:07.322Z,8.09
2023-05-19T00:31:34.542Z,8.06
2023-05-19T00:34:01.744Z,8.04
2023-05-19T00:36:28.970Z,8.01
2023-05-19T00:38:56.629Z,8.09
2023-05-19T00:41:23.649Z,7.98
2023-05-19T00:43:51.182Z,7.97
2023-05-19T00:46:19.327Z,7.97
2023-05-19T00:48:46.590Z,7.97
2023-05-19T00:51:17.142Z,8.02
2023-05-19T00:53:48.765Z,7.95
2023-05-19T00:56:17.013Z,7.96
2023-05-19T00:58:44.458Z,7.91
2023-05-19T01:01:14.705Z,8.00
2023-05-19T01:03:43.284Z,7.94
2023-05-19T01:06:10.361Z,7.94
2023-05-19T01:08:38.480Z,7.87
2023-05-19T01:11:07.104Z,7.91
2023-05-19T01:17:49.912Z,7.74
2023-05-19T01:20:22.253Z,7.83
2023-05-19T01:23:08.124Z,7.75
2023-05-19T01:25:53.706Z,7.66
2023-05-19T01:28:36.532Z,7.61
2023-05-19T01:31:07.663Z,7.66
2023-05-19T01:33:35.047Z,7.56
2023-05-19T01:36:03.844Z,7.60
2023-05-19T01:38:31.212Z,7.65
2023-05-19T01:40:58.453Z,7.65
2023-05-19T01:43:26.784Z,7.64
2023-05-19T01:45:54.408Z,7.68
2023-05-19T01:48:21.747Z,7.69
2023-05-19T01:50:48.756Z,7.68
2023-05-19T01:53:15.717Z,7.70
2023-05-19T01:55:46.674Z,7.57
2023-05-19T01:58:22.660Z,7.53
2023-05-19T02:01:34.907Z,7.57
2023-05-19T02:04:19.160Z,7.60
2023-05-19T02:07:16.034Z,7.60
2023-05-19T02:09:57.130Z,7.67
2023-05-19T02:12:36.201Z,7.60
2023-05-19T02:15:12.416Z,7.58
2023-05-19T02:17:43.554Z,7.57
2023-05-19T02:20:12.080Z,7.63
2023-05-19T02:22:39.193Z,7.55
2023-05-19T02:25:07.634Z,7.51
2023-05-19T02:27:38.140Z,7.45
2023-05-19T02:30:06.133Z,7.49
2023-05-19T02:32:33.399Z,7.58
2023-05-19T02:35:00.687Z,7.48
2023-05-19T02:37:28.798Z,7.49
2023-05-19T02:39:56.088Z,7.47
2023-05-19T02:42:23.484Z,7.47
2023-05-19T02:44:50.451Z,7.42
2023-05-19T02:47:17.888Z,7.37
2023-05-19T02:49:45.300Z,7.48
2023-05-19T02:52:12.525Z,7.42
2023-05-19T02:54:40.134Z,7.43
2023-05-19T02:57:07.219Z,7.51
2023-05-19T02:59:34.219Z,7.48
2023-05-19T03:02:02.164Z,7.42
2023-05-19T03:04:31.088Z,7.38
2023-05-19T03:06:58.040Z,7.29
2023-05-19T03:09:25.030Z,7.30
2023-05-19T03:11:52.188Z,7.27
2023-05-19T03:14:24.327Z,7.30
2023-05-19T03:16:51.700Z,7.40
2023-05-19T03:19:18.740Z,7.46
2023-05-19T03:21:45.875Z,7.39
2023-05-19T03:24:12.771Z,7.32
2023-05-19T03:26:39.733Z,7.44
2023-05-19T03:29:07.050Z,7.45
2023-05-19T03:31:36.535Z,7.44
2023-05-19T03:34:05.018Z,7.51
2023-05-19T03:36:32.410Z,7.55
2023-05-19T03:39:00.349Z,7.64
2023-05-19T03:41:27.684Z,7.64
2023-05-19T03:43:55.765Z,7.54
2023-05-19T03:46:22.705Z,7.43
2023-05-19T03:49:02.017Z,7.57
2023-05-19T03:51:41.407Z,7.54
2023-05-19T03:54:22.805Z,7.49
2023-05-19T03:56:51.627Z,7.51
2023-05-19T03:59:18.594Z,7.49
2023-05-19T04:01:46.714Z,7.55
2023-05-19T04:04:13.798Z,7.56
2023-05-19T04:06:40.947Z,7.67
2023-05-19T04:09:15.052Z,7.73
2023-05-19T04:11:43.093Z,7.68
2023-05-19T04:14:10.097Z,7.55
2023-05-19T04:16:37.249Z,7.61
2023-05-19T04:19:04.205Z,7.75
2023-05-19T04:21:31.086Z,7.66
2023-05-19T04:24:00.261Z,7.70
2023-05-19T04:26:31.044Z,7.74
2023-05-19T04:28:58.117Z,7.84
2023-05-19T04:31:25.177Z,7.81
2023-05-19T04:33:53.949Z,7.84
2023-05-19T04:36:22.716Z,7.87
2023-05-19T04:38:55.116Z,7.91
2023-05-19T04:41:25.016Z,7.93
2023-05-19T04:43:51.930Z,8.01
2023-05-19T04:46:24.550Z,8.01
2023-05-19T04:48:53.616Z,8.08
2023-05-19T04:51:21.295Z,8.29
2023-05-19T04:53:49.630Z,8.16
2023-05-19T04:56:16.759Z,8.24
2023-05-19T04:58:45.002Z,8.22
2023-05-19T05:07:21.889Z,8.26
2023-05-19T05:09:56.452Z,8.30
2023-05-19T05:12:23.759Z,8.43
2023-05-19T05:14:51.466Z,8.58
2023-05-19T05:17:19.151Z,8.80
2023-05-19T05:19:46.590Z,8.89
2023-05-19T05:22:14.016Z,9.06
2023-05-19T05:24:41.597Z,9.02
2023-05-19T05:27:10.478Z,9.08
2023-05-19T05:29:37.786Z,9.17
2023-05-19T05:32:06.398Z,9.22
2023-05-19T05:34:35.628Z,9.33
2023-05-19T05:37:02.414Z,9.48
2023-05-19T05:39:30.316Z,9.41
2023-05-19T05:41:57.458Z,9.45
2023-05-19T05:44:24.428Z,9.60
2023-05-19T05:46:51.836Z,9.62
2023-05-19T05:49:19.108Z,9.77
2023-05-19T05:52:01.503Z,9.87
2023-05-19T05:54:33.611Z,9.91
2023-05-19T05:57:00.936Z,9.93
2023-05-19T05:59:28.336Z,9.98
2023-05-19T06:01:55.354Z,9.96
2023-05-19T06:04:22.436Z,10.03
2023-05-19T06:06:49.473Z,10.16
2023-05-19T06:09:21.249Z,10.21
2023-05-19T06:11:48.418Z,10.26
2023-05-19T06:14:15.417Z,10.32
2023-05-19T06:17:11.096Z,10.35
2023-05-19T06:19:38.148Z,10.43
2023-05-19T06:24:58.032Z,10.61
2023-05-19T06:27:25.205Z,10.66
2023-05-19T06:29:52.395Z,10.91
2023-05-19T06:32:20.183Z,11.10
2023-05-19T06:34:54.314Z,11.33
2023-05-19T06:37:23.411Z,11.35
2023-05-19T06:39:52.833Z,11.74
2023-05-19T06:42:24.520Z,11.90
2023-05-19T06:45:15.898Z,12.01
2023-05-19T06:47:42.908Z,11.99
2023-05-19T06:50:10.657Z,12.09
2023-05-19T06:52:40.672Z,12.10
2023-05-19T06:55:07.968Z,12.17
2023-05-19T06:57:36.976Z,12.35
2023-05-19T07:00:05.575Z,12.19
2023-05-19T07:02:32.742Z,12.06
2023-05-19T07:04:59.707Z,12.00
2023-05-19T07:07:27.033Z,12.02
2023-05-19T07:09:55.393Z,12.06
2023-05-19T07:12:22.557Z,12.16
2023-05-19T07:14:49.993Z,12.23
2023-05-19T07:17:17.449Z,12.29
2023-05-19T07:19:45.848Z,12.33
2023-05-19T07:22:12.781Z,12.39
2023-05-19T07:24:39.814Z,12.51
2023-05-19T07:27:06.814Z,12.60
2023-05-19T07:29:33.752Z,12.70
2023-05-19T07:32:00.766Z,12.78
2023-05-19T07:34:27.673Z,12.80
2023-05-19T07:36:54.727Z,12.85
2023-05-19T07:39:21.896Z,12.87
2023-05-19T07:41:52.995Z,12.88
2023-05-19T07:44:19.947Z,13.00
2023-05-19T07:46:46.886Z,13.07
2023-05-19T07:49:13.886Z,13.14
2023-05-19T07:51:42.148Z,13.22
2023-05-19T07:54:09.239Z,13.32
2023-05-19T07:56:36.227Z,13.35
2023-05-19T07:59:04.671Z,13.40
2023-05-19T08:01:32.655Z,13.55
2023-05-19T08:04:00.266Z,13.72
2023-05-19T08:06:27.273Z,13.68
2023-05-19T08:08:54.536Z,13.72
2023-05-19T08:11:21.795Z,13.82
2023-05-19T08:13:52.022Z,13.91
2023-05-19T08:16:19.141Z,14.04
2023-05-19T08:18:46.300Z,14.15
2023-05-19T08:21:13.369Z,14.14
2023-05-19T08:23:40.336Z,14.11
2023-05-19T08:26:07.265Z,14.11
2023-05-19T08:28:34.364Z,14.25
2023-05-19T08:31:01.364Z,14.35
2023-05-19T08:33:28.605Z,14.54
2023-05-19T08:35:58.328Z,14.65
2023-05-19T08:38:26.641Z,14.81
2023-05-19T08:40:53.721Z,14.84
2023-05-19T08:43:20.623Z,14.77
2023-05-19T08:45:48.500Z,14.68
2023-05-19T08:48:17.639Z,14.83
2023-05-19T08:50:51.974Z,14.98
2023-05-19T08:56:10.754Z,15.12
2023-05-19T08:58:40.435Z,15.41
2023-05-19T09:01:11.774Z,15.54
2023-05-19T09:03:39.591Z,15.50
2023-05-19T09:06:10.519Z,15.58
2023-05-19T09:08:37.614Z,15.66
2023-05-19T09:11:04.639Z,15.75
2023-05-19T09:13:31.565Z,15.82
2023-05-19T09:15:58.979Z,15.64
2023-05-19T09:18:27.004Z,15.60
2023-05-19T09:21:03.192Z,15.65
2023-05-19T09:23:34.281Z,15.82
2023-05-19T09:26:07.721Z,15.83
2023-05-19T09:28:36.753Z,16.00
2023-05-19T09:31:06.268Z,16.05
2023-05-19T09:33:37.458Z,16.04
2023-05-19T09:36:08.859Z,15.95
2023-05-19T09:38:36.569Z,15.86
2023-05-19T09:41:06.663Z,16.05
2023-05-19T09:43:34.706Z,16.11
2023-05-19T09:46:11.954Z,16.03
2023-05-19T09:48:39.721Z,16.01
2023-05-19T09:51:08.339Z,16.01
2023-05-19T09:53:35.553Z,16.12
2023-05-19T09:56:04.288Z,16.20
2023-05-19T09:58:37.828Z,16.03
2023-05-19T10:01:05.895Z,15.96
2023-05-19T10:03:34.049Z,15.88
2023-05-19T10:06:09.447Z,16.03
2023-05-19T10:08:37.272Z,15.92
2023-05-19T10:11:05.500Z,15.87
2023-05-19T10:13:34.649Z,15.76
2023-05-19T10:16:02.024Z,15.86
2023-05-19T10:18:30.047Z,15.91
2023-05-19T10:20:58.359Z,15.97
2023-05-19T10:23:26.015Z,16.14
2023-05-19T10:25:56.628Z,16.33
2023-05-19T10:28:28.333Z,16.37
2023-05-19T10:30:59.229Z,16.44
2023-05-19T10:33:55.765Z,16.37
2023-05-19T10:36:46.012Z,16.37
2023-05-19T10:39:37.991Z,16.25
2023-05-19T10:42:11.078Z,16.38
2023-05-19T10:44:51.540Z,16.43
2023-05-19T10:47:25.716Z,16.56
2023-05-19T10:49:56.539Z,16.62
2023-05-19T10:52:26.385Z,16.61
2023-05-19T10:54:55.045Z,16.87
2023-05-19T10:57:28.709Z,17.20
2023-05-19T11:00:01.103Z,17.30
2023-05-19T11:02:44.367Z,17.28
2023-05-19T11:05:15.262Z,17.21
2023-05-19T11:07:55.725Z,17.22
2023-05-19T11:10:25.946Z,17.10
2023-05-19T11:12:52.966Z,17.05
2023-05-19T11:15:25.766Z,17.26
2023-05-19T11:17:53.045Z,17.36
2023-05-19T11:20:25.081Z,17.37
2023-05-19T11:23:22.037Z,17.36
2023-05-19T11:25:50.264Z,17.50
2023-05-19T11:28:20.243Z,17.43
2023-05-19T11:30:50.894Z,17.51
2023-05-19T11:33:19.924Z,17.56
2023-05-19T11:35:51.055Z,17.53
2023-05-19T11:38:19.281Z,17.46
2023-05-19T11:40:47.656Z,17.28
2023-05-19T11:43:14.584Z,17.46
2023-05-19T11:45:41.688Z,17.50
2023-05-19T11:48:13.045Z,17.68
2023-05-19T11:50:44.367Z,17.79
2023-05-19T11:53:16.728Z,17.79
2023-05-19T11:55:46.964Z,17.65
2023-05-19T11:58:14.279Z,17.48
2023-05-19T12:00:42.677Z,17.55
2023-05-19T12:03:10.174Z,17.53
2023-05-19T12:05:42.900Z,17.56
2023-05-19T12:08:14.128Z,17.67
2023-05-19T12:10:41.453Z,17.82
2023-05-19T12:13:10.123Z,18.04
2023-05-19T12:15:37.775Z,18.07
2023-05-19T12:18:04.814Z,18.08
2023-05-19T12:20:36.312Z,18.20
2023-05-19T12:23:04.235Z,18.20
2023-05-19T12:25:31.669Z,18.47
2023-05-19T12:28:00.292Z,18.77
2023-05-19T12:30:29.138Z,18.88
2023-05-19T12:32:59.861Z,18.84
2023-05-19T12:35:33.632Z,18.77
2023-05-19T12:38:06.912Z,18.65
2023-05-19T12:40:41.172Z,18.41
2023-05-19T12:43:09.906Z,18.54
2023-05-19T12:45:37.544Z,18.70
2023-05-19T12:48:06.978Z,19.05
2023-05-19T12:50:35.015Z,19.27
2023-05-19T12:53:02.329Z,19.35
2023-05-19T12:55:30.436Z,19.04
2023-05-19T12:57:58.548Z,18.68
2023-05-19T13:00:28.860Z,18.53
2023-05-19T13:02:57.047Z,18.55
2023-05-19T13:05:24.268Z,18.87
2023-05-19T13:07:59.520Z,19.28
2023-05-19T13:10:27.943Z,19.48
2023-05-19T13:13:14.187Z,19.52
2023-05-19T13:15:59.671Z,19.48
2023-05-19T13:18:44.982Z,19.50
2023-05-19T13:21:12.004Z,19.22
2023-05-19T13:23:38.936Z,19.37
2023-05-19T13:26:06.646Z,19.34
2023-05-19T13:28:33.478Z,19.10
2023-05-19T13:31:00.637Z,19.40
2023-05-19T13:33:27.636Z,19.73
2023-05-19T13:35:54.578Z,20.23
2023-05-19T13:38:21.509Z,20.42
2023-05-19T13:40:48.421Z,20.17
2023-05-19T13:43:15.396Z,20.06
2023-05-19T13:45:44.818Z,20.07
2023-05-19T13:48:12.560Z,20.37
2023-05-19T13:50:39.666Z,20.51
2023-05-19T13:53:06.809Z,20.46
2023-05-19T13:55:34.085Z,20.47
2023-05-19T13:58:01.140Z,20.06
2023-05-19T14:00:28.352Z,19.75
2023-05-19T14:02:56.388Z,19.76
2023-05-19T14:05:23.793Z,19.62
2023-05-19T14:07:51.081Z,19.70
2023-05-19T14:10:18.030Z,19.83
2023-05-19T14:13:12.343Z,20.11
2023-05-19T14:15:38.216Z,20.05
2023-05-19T14:18:06.946Z,20.11
2023-05-19T14:20:34.946Z,19.68
2023-05-19T14:23:02.258Z,19.20
2023-05-19T14:25:29.222Z,18.89
2023-05-19T14:27:56.476Z,18.86
2023-05-19T14:30:26.513Z,18.70
2023-05-19T14:32:53.737Z,18.40
2023-05-19T14:35:21.497Z,18.12
2023-05-19T14:37:49.360Z,18.00
2023-05-19T14:40:18.940Z,17.91
2023-05-19T14:42:46.592Z,17.75
2023-05-19T14:45:13.875Z,17.87
2023-05-19T14:47:41.142Z,17.79
2023-05-19T14:50:08.416Z,17.75
2023-05-19T14:52:35.302Z,17.74
2023-05-19T14:55:02.400Z,17.93
2023-05-19T14:57:29.428Z,18.05
2023-05-19T14:59:57.119Z,18.17
2023-05-19T15:02:25.202Z,18.52
2023-05-19T15:04:53.016Z,19.22
2023-05-19T15:07:20.010Z,19.22
2023-05-19T15:09:47.623Z,19.23
2023-05-19T15:12:14.577Z,19.09
2023-05-19T15:14:41.961Z,19.11
2023-05-19T15:17:09.641Z,19.19
2023-05-19T15:19:36.669Z,19.63
2023-05-19T15:22:03.818Z,20.60
2023-05-19T15:24:30.956Z,21.28
2023-05-19T15:26:58.482Z,21.74
2023-05-19T15:29:25.647Z,21.35
2023-05-19T15:31:52.712Z,21.71
2023-05-19T15:34:23.189Z,21.71
2023-05-19T15:36:50.270Z,21.05
2023-05-19T15:39:17.959Z,20.65
2023-05-19T15:41:45.492Z,20.44
2023-05-19T15:44:12.763Z,20.12
2023-05-19T15:46:40.092Z,19.74
2023-05-19T15:49:07.133Z,19.37
2023-05-19T15:51:34.908Z,19.33
2023-05-19T15:54:02.202Z,19.84
2023-05-19T15:56:32.396Z,20.42
2023-05-19T15:58:59.482Z,20.32
2023-05-19T16:01:26.719Z,20.47
2023-05-19T16:03:53.853Z,21.02
2023-05-19T16:06:21.313Z,21.02
2023-05-19T16:08:48.232Z,21.03
2023-05-19T16:11:15.110Z,21.14
2023-05-19T16:13:42.192Z,20.75
2023-05-19T16:16:09.161Z,20.83
2023-05-19T16:18:36.154Z,21.02
2023-05-19T16:21:03.368Z,20.93
2023-05-19T16:23:30.318Z,20.60
2023-05-19T16:25:57.858Z,20.75
2023-05-19T16:28:25.262Z,20.81
2023-05-19T16:30:52.159Z,20.66
2023-05-19T16:33:19.218Z,20.55
2023-05-19T16:35:46.410Z,20.46
2023-05-19T16:38:13.424Z,20.24
2023-05-19T16:40:40.389Z,20.19
2023-05-19T16:43:07.298Z,20.40
2023-05-19T16:45:34.405Z,20.18
2023-05-19T16:48:01.527Z,20.16
2023-05-19T16:50:28.577Z,20.02
2023-05-19T16:52:55.945Z,19.73
2023-05-19T16:55:23.088Z,19.73
2023-05-19T16:57:50.191Z,19.56
2023-05-19T17:00:17.607Z,19.59
2023-05-19T17:02:44.625Z,19.33
2023-05-19T17:05:11.815Z,19.12
2023-05-19T17:07:38.663Z,19.27
2023-05-19T17:10:06.235Z,19.14
2023-05-19T17:12:33.099Z,19.03
2023-05-19T17:15:00.064Z,19.00
2023-05-19T17:17:27.008Z,18.99
2023-05-19T17:19:53.906Z,18.71
2023-05-19T17:22:20.888Z,18.28
2023-05-19T17:24:47.756Z,18.30
2023-05-19T17:27:15.345Z,18.24
2023-05-19T17:29:42.239Z,18.13
2023-05-19T17:32:09.209Z,18.00
2023-05-19T17:34:36.176Z,17.86
2023-05-19T17:37:03.435Z,17.72
2023-05-19T17:39:30.395Z,17.63
2023-05-19T17:41:57.301Z,17.42
2023-05-19T17:44:24.211Z,17.36
2023-05-19T17:46:51.420Z,17.38
2023-05-19T17:49:18.490Z,17.18
2023-05-19T17:51:45.646Z,16.98
2023-05-19T17:54:12.849Z,16.99
2023-05-19T17:56:42.325Z,16.90
2023-05-19T17:59:09.701Z,16.92
2023-05-19T18:01:37.994Z,16.96
2023-05-19T18:04:05.452Z,16.95
2023-05-19T18:06:32.806Z,16.92
2023-05-19T18:09:01.580Z,16.83
2023-05-19T18:11:28.884Z,16.72
2023-05-19T18:13:56.125Z,16.57
2023-05-19T18:16:23.778Z,16.60
2023-05-19T18:18:51.192Z,16.51
2023-05-19T18:21:18.298Z,16.47
2023-05-19T18:23:46.325Z,16.42
2023-05-19T18:26:13.459Z,16.33
2023-05-19T18:28:40.996Z,16.37
2023-05-19T18:31:20.116Z,16.27
2023-05-19T18:33:47.469Z,16.02
2023-05-19T18:36:16.780Z,15.94
2023-05-19T18:38:44.128Z,15.97
2023-05-19T18:41:11.145Z,15.92
2023-05-19T18:43:39.130Z,15.83
2023-05-19T18:46:06.468Z,15.73
2023-05-19T18:48:36.400Z,15.50
2023-05-19T18:51:04.063Z,15.32
2023-05-19T18:53:34.908Z,15.31
2023-05-19T18:56:03.878Z,15.23
2023-05-19T18:58:30.789Z,15.10
2023-05-19T19:00:58.291Z,15.03
2023-05-19T19:03:25.877Z,14.96
2023-05-19T19:05:59.868Z,14.90
2023-05-19T19:08:26.852Z,14.83
2023-05-19T19:11:00.602Z,14.71
2023-05-19T19:13:29.091Z,14.68
2023-05-19T19:16:03.994Z,14.63
2023-05-19T19:18:31.523Z,14.59
2023-05-19T19:21:00.240Z,14.56
2023-05-19T19:23:30.444Z,14.54
2023-05-19T19:25:59.895Z,14.53
2023-05-19T19:28:31.075Z,14.52
2023-05-19T19:30:58.149Z,14.52
2023-05-19T19:33:31.438Z,14.51
2023-05-19T19:35:59.957Z,14.44
2023-05-19T19:42:27.517Z,14.30
2023-05-19T19:44:57.832Z,14.33
2023-05-19T19:47:25.155Z,14.30
2023-05-19T19:49:52.226Z,14.18
2023-05-19T19:52:19.483Z,14.13
2023-05-19T19:54:53.850Z,14.11
2023-05-19T19:57:21.118Z,14.18
2023-05-19T19:59:48.207Z,14.18
2023-05-19T20:02:15.197Z,14.11
2023-05-19T20:04:42.209Z,14.06
2023-05-19T20:07:09.170Z,14.00
2023-05-19T20:09:36.184Z,13.97
2023-05-19T20:12:03.141Z,13.91
2023-05-19T20:14:30.243Z,13.93
2023-05-19T20:16:57.135Z,13.91
2023-05-19T20:19:28.113Z,13.87
2023-05-19T20:21:55.284Z,13.89
2023-05-19T20:24:22.220Z,13.90
2023-05-19T20:26:49.320Z,13.87
2023-05-19T20:29:17.130Z,13.81
2023-05-19T20:31:46.838Z,13.73
2023-05-19T20:34:14.801Z,13.73
2023-05-19T20:36:41.831Z,13.72
2023-05-19T20:39:10.423Z,13.72
2023-05-19T20:41:37.437Z,13.63
2023-05-19T20:44:04.496Z,13.64
2023-05-19T20:46:31.420Z,13.58
2023-05-19T20:48:58.431Z,13.61
2023-05-19T20:51:27.294Z,13.59
2023-05-19T20:53:54.260Z,13.54
2023-05-19T20:56:22.691Z,13.54
2023-05-19T20:58:49.684Z,13.50
2023-05-19T21:01:16.926Z,13.46
2023-05-19T21:03:43.949Z,13.43
2023-05-19T21:06:11.109Z,13.44
2023-05-19T21:08:38.279Z,13.41
2023-05-19T21:11:06.434Z,13.41
2023-05-19T21:13:34.213Z,13.30
2023-05-19T21:16:01.167Z,13.28
2023-05-19T21:18:29.016Z,13.24
2023-05-19T21:20:55.981Z,13.18
2023-05-19T21:23:22.983Z,13.17
2023-05-19T21:25:50.792Z,13.12
2023-05-19T21:28:17.796Z,13.06
2023-05-19T21:30:48.327Z,13.10
2023-05-19T21:33:16.111Z,13.05
2023-05-19T21:35:43.119Z,12.99
2023-05-19T21:38:22.809Z,12.95
2023-05-19T21:40:51.402Z,12.94
2023-05-19T21:43:19.637Z,12.99
2023-05-19T21:45:46.524Z,12.93
2023-05-19T21:48:13.791Z,12.91
2023-05-19T21:50:40.774Z,12.92
2023-05-19T21:53:07.750Z,12.96
2023-05-19T21:55:35.237Z,12.85
2023-05-19T21:58:02.713Z,12.90
2023-05-19T22:00:29.831Z,12.88
2023-05-19T22:02:59.750Z,12.89
2023-05-19T22:05:26.936Z,12.83
2023-05-19T22:07:53.943Z,12.78
2023-05-19T22:10:21.124Z,12.72
2023-05-19T22:12:48.074Z,12.79
2023-05-19T22:15:16.414Z,12.78
2023-05-19T22:17:43.607Z,12.82
2023-05-19T22:20:11.198Z,12.76
2023-05-19T22:22:38.048Z,12.77
2023-05-19T22:25:05.547Z,12.72
2023-05-19T22:27:32.581Z,12.71
2023-05-19T22:30:02.548Z,12.52
2023-05-19T22:32:32.522Z,12.53
2023-05-19T22:34:59.937Z,12.52
2023-05-19T22:37:27.435Z,12.44
2023-05-19T22:39:54.953Z,12.44
2023-05-19T22:42:24.433Z,12.35
2023-05-19T22:44:51.487Z,12.35
2023-05-19T22:47:18.514Z,12.33
2023-05-19T22:49:47.077Z,12.31
2023-05-19T22:52:13.952Z,12.26
2023-05-19T22:54:41.708Z,12.19
2023-05-19T22:57:08.763Z,12.17
2023-05-19T22:59:35.882Z,12.16
2023-05-19T23:02:02.886Z,12.09
2023-05-19T23:04:30.489Z,12.11
2023-05-19T23:06:57.747Z,12.15
2023-05-19T23:09:25.073Z,12.16
2023-05-19T23:11:52.047Z,12.14
2023-05-19T23:14:19.023Z,12.09
2023-05-19T23:16:46.423Z,12.05
2023-05-19T23:19:13.496Z,12.04
2023-05-19T23:21:41.189Z,12.04
2023-05-19T23:24:08.291Z,11.99
2023-05-19T23:26:35.304Z,11.92
2023-05-19T23:29:02.262Z,11.86
2023-05-19T23:31:29.234Z,11.85
2023-05-19T23:33:56.538Z,11.89
2023-05-19T23:36:23.500Z,11.93
2023-05-19T23:38:50.510Z,11.91
2023-05-19T23:41:17.392Z,11.91
2023-05-19T23:43:44.328Z,11.77
2023-05-19T23:46:11.333Z,11.71
2023-05-19T23:48:38.272Z,11.67
2023-05-19T23:51:05.446Z,11.70
2023-05-19T23:53:32.401Z,11.67
2023-05-19T23:55:59.313Z,11.57
2023-05-19T23:58:26.253Z,11.42
